Welcome to La Porte Aviation Services!

An aviation adventure awaits

Current Weather Conditions

Available data for KPPO from the past 2 hours
LA PORTE, IN
Metar
KPPO 221635Z AUTO 14004KT 10SM CLR 01/M04 A3044 RMK AO2 T00101037

16:35 UTC

Wind: 140° 4kt

Visibility: 10 SM

Sky:

Temp: 1 deg C / 33.8 deg F

Dewpoint: -4 deg C / 24.8 deg F

Pressure: 30.44 inHg

Pireps (14)
MSN UA /OV OLK/TM 1618/FL360/TP B737/TB LGT OCNL MOD CHOP
OKK UA /OV OKK/TM 1616/FL300/TP A320/TB CONS LGT CHOP
ORD UA /OV OBK/TM 1607/FLFL15/TP C525/TB MOD
ORD UA /OV OBK/TM 1607/FLFL15/TP C525/TB MOD
ORD UA /OV OBK/TM 1607/FLFL15/TP C525/TB MOD
ORD UA /OV OBK/TM 1607/FLFL15/TP C525/TB MOD
OKK UA /OV OKK020010/TM 1604/FL210/TP B763/TB MOD
DNV UA /OV DNV/TM 1542/FL360/TP B767/TB CONT LGT CHOP
HAI UA /OV HAI270003/TM 1533/FL048/TP P28A/SK SKC/TB NEG
FWA UA /OV FWA050015/TM 1517/FL230/TP E170/TB CONT LGT OCNL MOD
ORD UA /OV ORD045025/TM 1517/FL110/TP CRJ9/WV 262024/TB LGT-MOD
ARP UAL497 4132N 08819W 1515 F340 M54 245/107 TB SMTH SK CLEAR IC NONE RM B772 OV JOT SMOOTH
GSH UA /OV GSH090015/TM 1511/FL340/TP A321/TB LGT CHOP
ARP UAL1440 4058N 08511W 1456 F260 M33 255/112 TB NOT REPORTED RM A320 OV FWA

Connect with us on Facebook!

Facebook By Weblizar Powered By Weblizar